createdAt,value
2022-09-21T00:01:30.690Z,4.00
2022-09-21T00:04:02.582Z,4.20
2022-09-21T00:06:32.318Z,3.90
2022-09-21T00:09:00.998Z,4.10
2022-09-21T00:11:29.863Z,4.00
2022-09-21T00:14:00.882Z,4.10
2022-09-21T00:16:29.402Z,3.90
2022-09-21T00:18:57.578Z,4.10
2022-09-21T00:21:25.173Z,4.30
2022-09-21T00:23:54.319Z,4.20
2022-09-21T00:26:23.549Z,4.60
2022-09-21T00:28:58.994Z,4.20
2022-09-21T00:31:27.535Z,4.10
2022-09-21T00:33:55.527Z,4.00
2022-09-21T00:36:24.838Z,4.30
2022-09-21T00:38:54.126Z,4.20
2022-09-21T00:41:22.518Z,4.10
2022-09-21T00:44:10.337Z,4.10
2022-09-21T00:46:42.090Z,4.20
2022-09-21T00:49:10.166Z,4.10
2022-09-21T00:51:38.343Z,3.90
2022-09-21T00:54:09.276Z,4.10
2022-09-21T00:56:37.381Z,4.20
2022-09-21T00:59:06.041Z,4.80
2022-09-21T01:01:34.296Z,4.30
2022-09-21T01:04:02.892Z,4.20
2022-09-21T01:06:32.604Z,4.30
2022-09-21T01:09:00.768Z,4.30
2022-09-21T01:11:34.988Z,4.40
2022-09-21T01:14:13.873Z,4.70
2022-09-21T01:16:48.879Z,4.80
2022-09-21T01:19:16.615Z,4.80
2022-09-21T01:21:54.408Z,4.90
2022-09-21T01:24:39.210Z,4.80
2022-09-21T01:27:19.986Z,5.10
2022-09-21T01:29:55.266Z,5.30
2022-09-21T01:32:28.777Z,5.20
2022-09-21T01:35:02.796Z,5.70
2022-09-21T01:37:36.529Z,5.90
2022-09-21T01:40:09.685Z,5.40
2022-09-21T01:42:39.177Z,5.90
2022-09-21T01:45:07.986Z,5.70
2022-09-21T01:47:37.080Z,5.70
2022-09-21T01:50:06.534Z,5.60
2022-09-21T01:52:43.837Z,6.20
2022-09-21T01:55:32.922Z,5.60
2022-09-21T01:58:20.883Z,6.00
2022-09-21T02:00:51.427Z,6.10
2022-09-21T02:03:26.932Z,5.80
2022-09-21T02:05:56.460Z,6.10
2022-09-21T02:08:26.947Z,6.40
2022-09-21T02:10:54.918Z,6.30
2022-09-21T02:13:25.624Z,6.30
2022-09-21T02:16:12.434Z,7.00
2022-09-21T02:18:50.481Z,6.90
2022-09-21T02:21:21.316Z,7.40
2022-09-21T02:23:56.023Z,7.90
2022-09-21T02:26:29.646Z,7.40
2022-09-21T02:29:12.052Z,7.70
2022-09-21T02:31:46.120Z,7.70
2022-09-21T02:34:17.100Z,7.90
2022-09-21T02:36:56.991Z,8.00
2022-09-21T02:39:31.687Z,7.90
2022-09-21T02:42:20.636Z,7.30
2022-09-21T02:44:53.008Z,7.90
2022-09-21T02:47:27.426Z,8.00
2022-09-21T02:49:58.837Z,7.60
2022-09-21T02:52:27.462Z,8.10
2022-09-21T02:54:55.747Z,8.50
2022-09-21T02:57:24.380Z,8.10
2022-09-21T02:59:52.490Z,8.10
2022-09-21T03:02:20.459Z,8.20
2022-09-21T03:04:49.064Z,8.40
2022-09-21T03:07:17.846Z,8.20
2022-09-21T03:09:45.797Z,8.10
2022-09-21T03:12:13.997Z,7.50
2022-09-21T03:14:41.647Z,8.40
2022-09-21T03:17:09.702Z,8.40
2022-09-21T03:19:37.468Z,8.00
2022-09-21T03:22:05.063Z,8.50
2022-09-21T03:24:48.151Z,8.20
2022-09-21T03:27:17.858Z,8.30
2022-09-21T03:29:46.801Z,7.80
2022-09-21T03:32:14.652Z,8.20
2022-09-21T03:34:42.592Z,8.30
2022-09-21T03:37:10.759Z,8.20
2022-09-21T03:39:38.900Z,9.00
2022-09-21T03:42:07.133Z,8.70
2022-09-21T03:44:37.633Z,8.80
2022-09-21T03:47:06.804Z,8.90
2022-09-21T03:49:35.088Z,8.90
2022-09-21T03:52:03.689Z,9.90
2022-09-21T03:54:31.657Z,8.80
2022-09-21T03:56:59.241Z,9.30
2022-09-21T03:59:27.187Z,8.70
2022-09-21T04:01:54.947Z,8.70
2022-09-21T04:04:22.618Z,9.00
2022-09-21T04:06:51.086Z,8.80
2022-09-21T04:09:19.131Z,8.70
2022-09-21T04:11:48.596Z,8.60
2022-09-21T04:14:16.939Z,9.10
2022-09-21T04:16:45.115Z,9.00
2022-09-21T04:19:12.854Z,9.10
2022-09-21T04:21:40.750Z,9.00
2022-09-21T04:24:08.619Z,9.30
2022-09-21T04:26:36.616Z,9.30
2022-09-21T04:29:06.671Z,9.30
2022-09-21T04:31:35.277Z,9.80
2022-09-21T04:34:03.315Z,8.90
2022-09-21T04:36:36.406Z,9.70
2022-09-21T04:39:05.530Z,9.80
2022-09-21T04:41:33.601Z,8.80
2022-09-21T04:44:01.794Z,9.40
2022-09-21T04:46:29.621Z,9.20
2022-09-21T04:48:57.404Z,9.20
2022-09-21T04:51:25.171Z,9.20
2022-09-21T04:53:53.136Z,9.50
2022-09-21T04:56:20.907Z,8.80
2022-09-21T04:58:48.767Z,11.30
2022-09-21T05:01:16.908Z,9.50
2022-09-21T05:03:44.635Z,9.30
2022-09-21T05:06:13.697Z,9.00
2022-09-21T05:09:00.917Z,8.70
2022-09-21T05:11:29.329Z,9.50
2022-09-21T05:13:57.631Z,10.70
2022-09-21T05:16:25.774Z,10.50
2022-09-21T05:18:55.680Z,12.80
2022-09-21T05:21:24.033Z,12.70
2022-09-21T05:23:52.000Z,10.30
2022-09-21T05:26:20.164Z,10.20
2022-09-21T05:28:48.261Z,9.90
2022-09-21T05:31:17.968Z,9.70
2022-09-21T05:33:54.637Z,10.40
2022-09-21T05:36:28.837Z,10.30
2022-09-21T05:38:56.770Z,9.70
2022-09-21T05:41:24.777Z,9.20
2022-09-21T05:43:52.643Z,9.90
2022-09-21T05:46:43.558Z,10.70
2022-09-21T05:49:11.417Z,8.50
2022-09-21T05:51:41.861Z,8.80
2022-09-21T05:54:19.334Z,10.40
2022-09-21T05:57:02.901Z,9.30
2022-09-21T05:59:45.914Z,9.50
2022-09-21T06:02:22.594Z,9.10
2022-09-21T06:04:50.668Z,8.90
2022-09-21T06:07:18.501Z,9.70
2022-09-21T06:09:47.285Z,9.00
2022-09-21T06:12:15.109Z,8.50
2022-09-21T06:14:43.562Z,8.90
2022-09-21T06:17:11.600Z,8.80
2022-09-21T06:19:39.262Z,7.70
2022-09-21T06:22:06.936Z,8.40
2022-09-21T06:24:34.686Z,8.40
2022-09-21T06:27:02.451Z,8.50
2022-09-21T06:29:30.212Z,7.90
2022-09-21T06:31:57.879Z,8.50
2022-09-21T06:34:25.688Z,9.70
2022-09-21T06:36:53.505Z,23.10
2022-09-21T06:39:21.270Z,25.70
2022-09-21T06:41:49.238Z,50.90
2022-09-21T06:44:17.107Z,37.10
2022-09-21T06:46:45.588Z,17.10
2022-09-21T06:49:13.959Z,16.60
2022-09-21T06:51:43.469Z,14.90
2022-09-21T06:54:11.641Z,10.90
2022-09-21T06:56:43.496Z,8.80
2022-09-21T06:59:11.464Z,19.80
2022-09-21T07:01:39.481Z,18.20
2022-09-21T07:04:09.657Z,18.60
2022-09-21T07:06:37.622Z,13.80
2022-09-21T07:11:53.120Z,10.20
2022-09-21T07:14:22.628Z,8.80
2022-09-21T07:16:50.712Z,7.90
2022-09-21T07:19:19.492Z,8.80
2022-09-21T07:21:47.861Z,8.80
2022-09-21T07:24:15.916Z,20.20
2022-09-21T07:26:43.811Z,12.30
2022-09-21T07:29:11.742Z,8.40
2022-09-21T07:51:43.530Z,8.50
2022-09-21T07:54:11.497Z,7.50
2022-09-21T07:56:39.774Z,8.00
2022-09-21T07:59:08.051Z,6.30
2022-09-21T08:01:39.720Z,6.80
2022-09-21T08:04:09.507Z,6.70
2022-09-21T08:06:40.125Z,6.10
2022-09-21T08:09:08.837Z,6.40
2022-09-21T09:23:27.050Z,4.60
2022-09-21T09:25:59.068Z,4.70
2022-09-21T09:28:40.431Z,5.10
2022-09-21T09:31:14.978Z,4.60
2022-09-21T09:34:18.526Z,4.70
2022-09-21T09:36:58.702Z,5.40
2022-09-21T09:39:32.026Z,4.90
2022-09-21T09:42:12.740Z,4.90
2022-09-21T09:44:58.545Z,4.90
2022-09-21T09:47:26.286Z,5.40
2022-09-21T09:50:00.302Z,4.90
2022-09-21T09:52:28.778Z,4.50
2022-09-21T09:54:56.444Z,5.30
2022-09-21T09:57:30.765Z,5.80
2022-09-21T10:00:04.357Z,3.50
2022-09-21T10:02:45.978Z,4.20
2022-09-21T10:05:41.355Z,3.90
2022-09-21T10:08:29.037Z,3.90
2022-09-21T10:10:57.855Z,4.50
2022-09-21T10:13:33.524Z,4.00
2022-09-21T10:16:15.483Z,4.20
2022-09-21T10:18:48.042Z,3.30
2022-09-21T10:21:21.797Z,3.60
2022-09-21T10:24:14.660Z,3.50
2022-09-21T10:26:45.486Z,4.20
2022-09-21T10:29:29.328Z,3.80
2022-09-21T10:31:58.356Z,3.50
2022-09-21T10:34:28.266Z,3.60
2022-09-21T10:36:57.326Z,4.00
2022-09-21T10:39:29.549Z,3.70
2022-09-21T10:42:18.493Z,3.40
2022-09-21T10:44:47.837Z,3.40
2022-09-21T10:47:17.975Z,2.80
2022-09-21T10:49:56.264Z,3.30
2022-09-21T10:52:35.215Z,3.60
2022-09-21T10:55:03.292Z,2.90
2022-09-21T10:57:32.791Z,2.80
2022-09-21T11:00:19.580Z,3.20
2022-09-21T11:05:28.441Z,2.80
2022-09-21T11:08:02.634Z,2.40
2022-09-21T11:10:40.081Z,2.20
2022-09-21T11:13:31.309Z,3.00
2022-09-21T11:16:09.724Z,2.80
2022-09-21T11:18:55.707Z,2.90
2022-09-21T11:21:23.828Z,2.50
2022-09-21T11:24:10.640Z,2.80
2022-09-21T11:26:59.448Z,2.10
2022-09-21T11:29:31.965Z,2.10
2022-09-21T11:32:05.947Z,2.40
2022-09-21T11:34:37.737Z,2.30
2022-09-21T11:37:35.299Z,2.00
2022-09-21T11:40:12.416Z,2.70
2022-09-21T11:42:59.503Z,2.80
2022-09-21T11:45:50.379Z,2.10
2022-09-21T11:48:19.000Z,2.60
2022-09-21T11:51:05.805Z,2.30
2022-09-21T11:56:13.767Z,1.80
2022-09-21T11:58:53.049Z,1.60
2022-09-21T12:01:36.818Z,1.70
2022-09-21T12:04:24.196Z,1.50
2022-09-21T12:07:13.482Z,1.40
2022-09-21T12:09:55.069Z,1.70
2022-09-21T12:12:39.323Z,1.70
2022-09-21T12:15:12.003Z,1.80
2022-09-21T12:17:44.064Z,1.80
2022-09-21T12:20:30.265Z,1.40
2022-09-21T12:23:01.765Z,1.60
2022-09-21T12:25:36.449Z,1.50
2022-09-21T12:28:18.058Z,1.50
2022-09-21T12:30:48.166Z,1.60
2022-09-21T12:33:37.004Z,1.50
2022-09-21T12:36:17.891Z,1.60
2022-09-21T12:38:56.015Z,1.80
2022-09-21T12:41:37.363Z,1.70
2022-09-21T12:44:21.492Z,1.80
2022-09-21T12:46:55.446Z,1.90
2022-09-21T12:49:30.559Z,1.80
2022-09-21T12:52:01.591Z,1.70
2022-09-21T12:54:52.598Z,2.00
2022-09-21T12:57:45.459Z,2.10
2022-09-21T13:00:14.907Z,1.80
2022-09-21T13:02:48.808Z,1.60
2022-09-21T13:05:18.230Z,1.40
2022-09-21T13:08:05.252Z,1.40
2022-09-21T13:10:56.291Z,1.50
2022-09-21T13:13:28.146Z,1.40
2022-09-21T13:15:59.396Z,1.40
2022-09-21T13:18:36.274Z,1.50
2022-09-21T13:21:36.308Z,1.40
2022-09-21T13:24:05.899Z,1.60
2022-09-21T13:26:36.326Z,1.40
2022-09-21T13:29:06.953Z,1.50
2022-09-21T13:31:40.863Z,2.20
2022-09-21T13:34:15.898Z,1.60
2022-09-21T13:36:43.660Z,1.50
2022-09-21T13:39:17.155Z,1.20
2022-09-21T13:42:02.227Z,1.40
2022-09-21T13:44:34.221Z,1.70
2022-09-21T13:47:02.547Z,1.40
2022-09-21T13:49:40.410Z,1.50
2022-09-21T13:52:22.876Z,1.50
2022-09-21T13:54:55.587Z,1.80
2022-09-21T13:57:45.335Z,1.40
2022-09-21T14:00:13.208Z,1.70
2022-09-21T14:02:44.918Z,2.20
2022-09-21T14:05:31.832Z,1.90
2022-09-21T14:08:07.824Z,1.50
2022-09-21T14:10:38.312Z,1.80
2022-09-21T14:13:23.217Z,1.70
2022-09-21T14:15:51.493Z,2.00
2022-09-21T14:18:21.308Z,2.10
2022-09-21T14:21:09.721Z,2.10
2022-09-21T14:23:38.951Z,2.40
2022-09-21T14:26:21.054Z,2.20
2022-09-21T14:28:51.685Z,2.20
2022-09-21T14:31:22.834Z,2.20
2022-09-21T14:33:55.299Z,2.10
2022-09-21T14:36:27.685Z,2.40
2022-09-21T14:39:00.761Z,2.40
2022-09-21T14:41:34.716Z,2.40
2022-09-21T14:44:03.084Z,2.40
2022-09-21T14:46:36.348Z,2.50
2022-09-21T14:49:04.733Z,2.40
2022-09-21T14:51:40.698Z,2.10
2022-09-21T14:54:18.148Z,2.00
2022-09-21T14:56:55.772Z,2.00
2022-09-21T14:59:38.802Z,1.90
2022-09-21T15:02:20.406Z,1.50
2022-09-21T15:05:01.487Z,1.70
2022-09-21T15:08:09.659Z,2.30
2022-09-21T15:10:58.603Z,2.20
2022-09-21T15:13:53.092Z,2.70
2022-09-21T15:16:22.171Z,1.60
2022-09-21T15:18:57.185Z,1.20
2022-09-21T15:21:27.558Z,1.00
2022-09-21T15:23:56.013Z,1.30
2022-09-21T15:26:32.915Z,1.60
2022-09-21T15:29:09.613Z,3.80
2022-09-21T15:34:07.688Z,4.00
2022-09-21T15:36:38.522Z,2.00
2022-09-21T15:39:09.351Z,3.10
2022-09-21T15:41:45.616Z,2.90
2022-09-21T15:44:16.346Z,1.30
2022-09-21T15:46:51.005Z,0.90
2022-09-21T15:49:23.401Z,1.00
2022-09-21T15:51:57.587Z,0.90
2022-09-21T15:54:28.309Z,1.00
2022-09-21T15:56:58.227Z,1.30
2022-09-21T15:59:29.398Z,1.90
2022-09-21T16:02:00.191Z,1.80
2022-09-21T16:04:28.599Z,2.00
2022-09-21T16:07:08.050Z,2.10
2022-09-21T16:09:38.148Z,1.50
2022-09-21T16:12:26.977Z,1.60
2022-09-21T16:15:03.913Z,1.50
2022-09-21T16:17:38.547Z,1.60
2022-09-21T16:20:10.743Z,1.60
2022-09-21T16:22:39.877Z,1.70
2022-09-21T16:25:30.852Z,1.80
2022-09-21T16:28:06.895Z,1.80
2022-09-21T16:30:43.268Z,2.10
2022-09-21T16:33:30.601Z,3.30
2022-09-21T16:35:59.518Z,4.70
2022-09-21T16:38:29.038Z,7.10
2022-09-21T16:40:57.576Z,8.90
2022-09-21T16:43:27.469Z,10.00
2022-09-21T16:45:56.167Z,9.80
2022-09-21T16:48:25.171Z,8.90
2022-09-21T16:50:54.867Z,8.50
2022-09-21T16:53:24.441Z,7.80
2022-09-21T16:55:53.774Z,7.40
2022-09-21T16:58:22.359Z,6.30
2022-09-21T17:00:55.972Z,7.70
2022-09-21T17:03:25.976Z,6.60
2022-09-21T17:05:56.996Z,6.20
2022-09-21T17:08:28.779Z,5.30
2022-09-21T17:10:59.270Z,4.40
2022-09-21T17:13:29.289Z,2.90
2022-09-21T17:15:58.812Z,2.90
2022-09-21T17:18:27.610Z,2.80
2022-09-21T17:20:56.503Z,2.90
2022-09-21T17:23:29.908Z,2.80
2022-09-21T17:25:58.576Z,3.10
2022-09-21T17:28:27.677Z,2.90
2022-09-21T17:30:56.113Z,2.80
2022-09-21T17:33:26.077Z,3.00
2022-09-21T17:35:55.460Z,2.40
2022-09-21T17:38:23.649Z,2.40
2022-09-21T17:40:55.854Z,2.90
2022-09-21T17:43:25.427Z,3.10
2022-09-21T17:46:01.709Z,3.30
2022-09-21T17:48:34.238Z,4.40
2022-09-21T17:51:03.874Z,4.70
2022-09-21T17:53:37.425Z,5.30
2022-09-21T17:56:10.074Z,17.10
2022-09-21T17:58:42.207Z,12.40
2022-09-21T18:01:30.274Z,26.30
2022-09-21T18:03:59.750Z,18.10
2022-09-21T18:06:30.977Z,21.40
2022-09-21T18:09:02.836Z,23.90
2022-09-21T18:11:52.082Z,13.40
2022-09-21T18:14:30.127Z,11.60
2022-09-21T18:17:09.564Z,16.50
2022-09-21T18:19:56.897Z,22.80
2022-09-21T18:22:44.425Z,11.90
2022-09-21T18:27:49.506Z,7.50
2022-09-21T18:30:20.089Z,15.00
2022-09-21T18:33:10.271Z,16.20
2022-09-21T18:35:51.155Z,11.60
2022-09-21T18:38:35.835Z,13.00
2022-09-21T18:41:17.002Z,17.40
2022-09-21T18:43:49.584Z,11.80
2022-09-21T18:46:29.931Z,6.80
2022-09-21T18:49:09.072Z,5.50
2022-09-21T18:51:49.315Z,4.20
2022-09-21T18:54:25.086Z,6.60
2022-09-21T18:56:54.955Z,10.40
2022-09-21T18:59:31.044Z,16.50
2022-09-21T19:02:03.299Z,32.40
2022-09-21T19:04:33.253Z,31.20
2022-09-21T19:07:11.794Z,23.40
2022-09-21T19:09:52.400Z,12.20
2022-09-21T19:12:28.171Z,8.30
2022-09-21T19:15:17.565Z,6.50
2022-09-21T19:18:02.593Z,5.60
2022-09-21T19:20:45.268Z,4.30
2022-09-21T19:23:24.590Z,3.90
2022-09-21T19:25:57.409Z,4.30
2022-09-21T19:28:32.898Z,6.60
2022-09-21T19:31:07.698Z,7.50
2022-09-21T19:33:50.110Z,8.10
2022-09-21T19:36:21.043Z,8.90
2022-09-21T19:38:50.238Z,10.20
2022-09-21T19:41:33.283Z,11.50
2022-09-21T19:44:19.134Z,12.40
2022-09-21T19:46:51.940Z,11.70
2022-09-21T19:49:21.953Z,11.30
2022-09-21T19:51:53.002Z,9.10
2022-09-21T19:54:43.336Z,7.10
2022-09-21T19:57:35.518Z,6.10
2022-09-21T20:00:09.267Z,6.00
2022-09-21T20:02:58.151Z,6.20
2022-09-21T20:05:34.728Z,5.40
2022-09-21T20:08:27.689Z,6.60
2022-09-21T20:11:06.524Z,8.20
2022-09-21T20:13:53.438Z,8.50
2022-09-21T20:16:41.006Z,8.20
2022-09-21T20:19:19.586Z,5.50
2022-09-21T20:21:49.605Z,4.80
2022-09-21T20:24:41.728Z,5.90
2022-09-21T20:27:36.125Z,6.70
2022-09-21T20:30:06.681Z,7.20
2022-09-21T20:32:36.987Z,8.90
2022-09-21T20:35:16.775Z,6.70
2022-09-21T20:37:46.433Z,6.40
2022-09-21T20:40:15.990Z,6.40
2022-09-21T20:42:46.766Z,5.30
2022-09-21T20:45:16.907Z,5.90
2022-09-21T20:47:45.304Z,8.80
2022-09-21T20:50:15.176Z,4.60
2022-09-21T20:52:45.399Z,4.30
2022-09-21T20:55:17.564Z,4.40
2022-09-21T20:57:45.427Z,6.90
2022-09-21T21:00:14.970Z,20.80
2022-09-21T21:02:44.229Z,14.10
2022-09-21T21:05:12.409Z,10.10
2022-09-21T21:07:44.670Z,9.50
2022-09-21T21:10:14.805Z,8.40
2022-09-21T21:12:45.548Z,14.00
2022-09-21T21:15:15.240Z,13.40
2022-09-21T21:17:43.439Z,13.50
2022-09-21T21:20:12.816Z,10.00
2022-09-21T21:22:41.496Z,7.50
2022-09-21T21:25:10.386Z,11.30
2022-09-21T21:27:38.465Z,12.00
2022-09-21T21:30:07.554Z,10.20
2022-09-21T21:32:35.745Z,7.40
2022-09-21T21:35:05.198Z,7.60
2022-09-21T21:37:33.724Z,7.70
2022-09-21T21:40:02.481Z,8.00
2022-09-21T21:42:30.572Z,7.40
2022-09-21T21:44:58.904Z,6.20
2022-09-21T21:47:39.406Z,5.60
2022-09-21T21:50:09.941Z,4.90
2022-09-21T21:52:37.943Z,4.10
2022-09-21T21:55:06.113Z,4.30
2022-09-21T21:57:35.869Z,4.00
2022-09-21T22:00:04.983Z,3.50
2022-09-21T22:02:33.100Z,3.90
2022-09-21T22:05:00.954Z,4.00
2022-09-21T22:07:29.156Z,3.90
2022-09-21T22:09:57.345Z,4.00
2022-09-21T22:12:26.462Z,4.20
2022-09-21T22:14:54.725Z,4.10
2022-09-21T22:17:23.519Z,4.00
2022-09-21T22:19:52.119Z,3.80
2022-09-21T22:22:19.979Z,4.30
2022-09-21T22:24:48.253Z,4.10
2022-09-21T22:27:16.846Z,4.00
2022-09-21T22:29:45.190Z,4.30
2022-09-21T22:32:12.975Z,4.30
2022-09-21T22:34:40.841Z,4.50
2022-09-21T22:37:09.332Z,4.10
2022-09-21T22:39:37.105Z,4.10
2022-09-21T22:42:05.601Z,4.40
2022-09-21T22:44:33.439Z,4.30
2022-09-21T22:47:01.132Z,4.30
2022-09-21T22:49:28.858Z,4.40
2022-09-21T22:51:56.620Z,4.50
2022-09-21T22:54:24.663Z,4.10
2022-09-21T22:56:52.558Z,4.60
2022-09-21T22:59:20.262Z,4.20
2022-09-21T23:01:47.984Z,4.50
2022-09-21T23:04:17.710Z,4.20
2022-09-21T23:06:46.069Z,4.10
2022-09-21T23:09:15.099Z,4.50
2022-09-21T23:11:44.463Z,4.50
2022-09-21T23:14:14.135Z,4.50
2022-09-21T23:16:43.612Z,4.30
2022-09-21T23:19:15.945Z,5.30
2022-09-21T23:21:45.682Z,5.50
2022-09-21T23:24:13.693Z,5.70
2022-09-21T23:26:42.317Z,6.20
2022-09-21T23:29:12.868Z,6.20
2022-09-21T23:31:44.768Z,6.70
2022-09-21T23:34:14.801Z,6.10
2022-09-21T23:36:43.450Z,5.30
2022-09-21T23:39:12.730Z,4.90
2022-09-21T23:41:41.227Z,4.90
2022-09-21T23:44:09.372Z,4.60
2022-09-21T23:46:39.365Z,4.60
2022-09-21T23:49:08.240Z,4.80
2022-09-21T23:51:36.739Z,4.80
2022-09-21T23:54:04.928Z,4.80
2022-09-21T23:56:34.331Z,4.70
2022-09-21T23:59:02.676Z,4.60
